Time;durP1;ratioP1;P1;durP2;ratioP2;P2;SDS_P1;SDS_P2;PMS_P1;PMS_P2;Temp;Humidity;BMP_temperature;BMP_pressure;BME280_temperature;BME280_humidity;BME280_pressure;Samples;Min_cycle;Max_cycle;Signal;HPM_P1;HPM_P2
2021/01/30 00:00:44;;;;;;;3.60;1.10;;;15.80;61.20;;;;;;4989296;28;20039;-69
2021/01/30 00:03:12;;;;;;;3.30;1.17;;;15.80;59.80;;;;;;4986890;28;20034;-69
2021/01/30 00:05:39;;;;;;;2.45;0.93;;;15.70;58.80;;;;;;4981560;28;20052;-70
2021/01/30 00:08:07;;;;;;;4.32;0.82;;;15.70;59.10;;;;;;4989135;28;20453;-69
2021/01/30 00:10:34;;;;;;;4.95;1.33;;;15.60;60.60;;;;;;4986155;28;20034;-69
2021/01/30 00:13:01;;;;;;;5.20;1.63;;;15.70;61.10;;;;;;4988106;28;20027;-69
2021/01/30 00:15:28;;;;;;;2.90;1.55;;;15.70;57.40;;;;;;4981710;28;20500;-70
2021/01/30 00:17:56;;;;;;;2.50;1.15;;;15.80;57.70;;;;;;4977115;28;20030;-70
2021/01/30 00:20:26;;;;;;;5.53;1.70;;;15.40;57.70;;;;;;4987415;28;20113;-70
2021/01/30 00:22:53;;;;;;;3.95;1.27;;;15.60;58.40;;;;;;4988334;28;20432;-70
2021/01/30 00:25:26;;;;;;;4.25;1.05;;;15.50;57.50;;;;;;4991912;28;20076;-71
2021/01/30 00:27:53;;;;;;;3.25;1.17;;;15.60;56.20;;;;;;4983297;28;20022;-70
2021/01/30 00:30:21;;;;;;;3.35;1.75;;;15.50;57.90;;;;;;4985895;28;20029;-71
2021/01/30 00:32:49;;;;;;;6.47;1.13;;;15.40;59.00;;;;;;4994515;28;20035;-70
2021/01/30 00:35:15;;;;;;;3.78;1.30;;;15.30;58.70;;;;;;4993857;28;20353;-71
2021/01/30 00:37:42;;;;;;;2.40;1.10;;;15.30;57.40;;;;;;4986841;28;20030;-71
2021/01/30 00:40:09;;;;;;;1.42;1.00;;;15.30;58.50;;;;;;4982940;28;20061;-70
2021/01/30 00:42:36;;;;;;;6.80;1.95;;;15.20;58.70;;;;;;4992922;28;20522;-72
2021/01/30 00:45:05;;;;;;;9.10;2.80;;;15.10;58.60;;;;;;4988647;28;20449;-71
2021/01/30 00:47:31;;;;;;;3.33;1.52;;;15.10;57.10;;;;;;4985233;28;20384;-71
2021/01/30 00:49:58;;;;;;;2.60;1.20;;;15.00;57.70;;;;;;4991923;28;20050;-71
2021/01/30 00:52:24;;;;;;;3.58;1.52;;;14.90;57.30;;;;;;4989875;28;20228;-72
2021/01/30 00:54:52;;;;;;;2.50;1.23;;;14.70;58.90;;;;;;4985887;28;20053;-71
2021/01/30 00:57:19;;;;;;;3.92;1.73;;;14.60;58.40;;;;;;4983539;28;20037;-71
2021/01/30 00:59:46;;;;;;;7.75;2.60;;;14.50;59.50;;;;;;4986271;28;20026;-71
2021/01/30 01:02:12;;;;;;;6.03;2.05;;;14.30;59.60;;;;;;4986598;28;20026;-72
2021/01/30 01:04:42;;;;;;;3.95;2.08;;;14.30;60.10;;;;;;4987080;28;20092;-72
2021/01/30 01:07:08;;;;;;;4.43;1.85;;;14.30;59.30;;;;;;4991636;28;20034;-72
2021/01/30 01:09:34;;;;;;;6.68;1.85;;;14.20;60.00;;;;;;4990832;28;20065;-72
2021/01/30 01:12:01;;;;;;;2.38;1.42;;;14.10;60.50;;;;;;4990764;28;20022;-72
2021/01/30 01:14:27;;;;;;;7.05;1.60;;;14.00;61.20;;;;;;4993734;28;20428;-72
2021/01/30 01:16:54;;;;;;;2.70;1.63;;;13.90;61.00;;;;;;4989655;28;20476;-71
2021/01/30 01:19:21;;;;;;;4.68;2.05;;;13.90;60.90;;;;;;4991416;28;20023;-73
2021/01/30 01:21:52;;;;;;;6.30;1.92;;;13.70;61.50;;;;;;4987773;28;20085;-75
2021/01/30 01:24:20;;;;;;;10.50;2.17;;;13.70;61.60;;;;;;4993195;28;20034;-75
2021/01/30 01:26:48;;;;;;;3.13;1.80;;;13.70;61.40;;;;;;4992164;28;20030;-72
2021/01/30 01:29:16;;;;;;;3.83;1.95;;;13.60;62.00;;;;;;4988511;28;20030;-72
2021/01/30 01:31:42;;;;;;;8.05;1.67;;;13.50;61.80;;;;;;4988262;28;20078;-72
2021/01/30 01:34:09;;;;;;;4.72;1.73;;;13.50;61.90;;;;;;4993333;28;20023;-72
2021/01/30 01:36:35;;;;;;;4.10;1.60;;;13.40;61.90;;;;;;4986610;28;20471;-72
2021/01/30 01:39:03;;;;;;;2.33;1.50;;;13.20;62.50;;;;;;4985015;28;20029;-72
2021/01/30 01:41:29;;;;;;;2.53;1.88;;;13.20;62.80;;;;;;4995723;28;20108;-72
2021/01/30 01:43:55;;;;;;;5.07;2.20;;;13.10;63.00;;;;;;4990186;28;20033;-73
2021/01/30 01:46:38;;;;;;;5.90;1.83;;;13.00;63.20;;;;;;4989931;28;20361;-73
2021/01/30 01:52:16;;;;;;;1.75;1.50;;;12.80;63.40;;;;;;4990427;28;20134;-72
2021/01/30 01:54:43;;;;;;;1.75;1.65;;;12.70;63.30;;;;;;4992866;28;20026;-73
2021/01/30 01:57:14;;;;;;;3.00;1.30;;;12.60;63.10;;;;;;4992749;28;20444;-72
2021/01/30 01:59:47;;;;;;;2.17;1.60;;;12.50;63.60;;;;;;4989701;28;20546;-73
2021/01/30 02:02:14;;;;;;;4.25;1.65;;;12.50;63.40;;;;;;4988246;28;20427;-73
2021/01/30 02:04:44;;;;;;;7.18;2.63;;;12.50;63.90;;;;;;4993400;28;20029;-73
2021/01/30 02:07:11;;;;;;;2.38;1.35;;;12.30;63.70;;;;;;4991305;28;20034;-73
2021/01/30 02:09:37;;;;;;;11.90;3.88;;;12.20;63.60;;;;;;4984179;28;20082;-73
2021/01/30 02:12:07;;;;;;;8.05;2.08;;;12.20;63.80;;;;;;4987640;28;20109;-73
2021/01/30 02:14:38;;;;;;;6.28;2.13;;;12.20;63.90;;;;;;4989825;28;20046;-73
2021/01/30 02:17:25;;;;;;;3.72;2.08;;;12.20;63.80;;;;;;4986224;28;20027;-73
2021/01/30 02:20:14;;;;;;;3.08;2.13;;;12.10;64.10;;;;;;4993974;28;20034;-74
2021/01/30 02:22:56;;;;;;;2.55;2.00;;;12.00;64.10;;;;;;4991772;28;20061;-74
2021/01/30 02:25:47;;;;;;;3.45;2.30;;;11.90;64.70;;;;;;4990699;28;20034;-74
2021/01/30 02:28:35;;;;;;;4.18;2.30;;;11.80;64.80;;;;;;4984610;28;20471;-73
2021/01/30 02:31:15;;;;;;;3.22;2.15;;;11.80;64.40;;;;;;4987006;28;20026;-71
2021/01/30 02:33:59;;;;;;;9.23;2.95;;;11.70;65.30;;;;;;4989560;28;20022;-71
2021/01/30 02:36:44;;;;;;;7.57;2.75;;;11.60;65.20;;;;;;4989977;28;20041;-71
2021/01/30 02:39:51;;;;;;;6.97;2.45;;;11.60;64.60;;;;;;4983146;28;20037;-70
2021/01/30 02:42:41;;;;;;;4.15;1.83;;;11.40;65.50;;;;;;4987787;28;20026;-70
2021/01/30 02:45:45;;;;;;;11.23;3.10;;;11.20;65.90;;;;;;4990736;28;20050;-71
2021/01/30 02:48:19;;;;;;;4.45;2.10;;;11.10;65.40;;;;;;4984530;28;20078;-71
2021/01/30 02:50:49;;;;;;;4.93;1.95;;;11.10;66.00;;;;;;4986367;28;20050;-71
2021/01/30 02:53:22;;;;;;;7.95;2.97;;;11.00;66.30;;;;;;4978030;28;20453;-72
2021/01/30 02:55:53;;;;;;;2.75;2.42;;;11.00;65.70;;;;;;4988694;28;20478;-70
2021/01/30 02:58:23;;;;;;;2.92;1.88;;;10.90;66.40;;;;;;4977796;28;20026;-71
2021/01/30 03:00:56;;;;;;;4.78;2.28;;;10.80;66.10;;;;;;4990254;28;20030;-70
2021/01/30 03:03:22;;;;;;;5.65;2.55;;;10.70;66.20;;;;;;4987036;28;20045;-71
2021/01/30 03:05:50;;;;;;;7.57;2.90;;;10.70;66.20;;;;;;4982582;28;20684;-71
2021/01/30 03:08:23;;;;;;;4.82;2.22;;;10.60;65.90;;;;;;4982784;28;20453;-72
2021/01/30 03:11:06;;;;;;;9.60;2.97;;;10.60;66.30;;;;;;4985239;28;20018;-70
2021/01/30 03:14:01;;;;;;;;;;;10.70;65.60;;;;;;4986496;28;20081;-71
2021/01/30 03:16:34;;;;;;;3.80;2.60;;;10.60;66.40;;;;;;4984265;28;19913;-72
2021/01/30 03:19:16;;;;;;;5.25;3.10;;;10.50;66.20;;;;;;4986249;28;20467;-72
2021/01/30 03:21:44;;;;;;;13.43;3.90;;;10.40;65.70;;;;;;4992262;28;20018;-71
2021/01/30 03:24:11;;;;;;;7.05;3.13;;;10.30;65.70;;;;;;4992988;28;20023;-71
2021/01/30 03:26:43;;;;;;;3.10;2.40;;;10.30;66.90;;;;;;4991211;28;20030;-72
2021/01/30 03:29:11;;;;;;;6.53;3.30;;;10.20;66.50;;;;;;4993322;28;20241;-72
2021/01/30 03:31:38;;;;;;;13.52;3.00;;;10.10;67.40;;;;;;4984575;28;20026;-71
2021/01/30 03:34:06;;;;;;;8.05;3.40;;;10.00;67.80;;;;;;4992564;28;20031;-71
2021/01/30 03:36:33;;;;;;;8.30;3.13;;;10.00;67.00;;;;;;4988668;28;20519;-71
2021/01/30 03:38:59;;;;;;;7.60;3.22;;;9.90;68.10;;;;;;4986820;28;20122;-72
2021/01/30 03:41:25;;;;;;;4.30;3.28;;;9.90;67.40;;;;;;4984192;28;20481;-71
2021/01/30 03:43:52;;;;;;;9.38;3.30;;;9.90;68.00;;;;;;4990692;28;20085;-70
2021/01/30 03:46:18;;;;;;;6.45;3.95;;;9.90;68.20;;;;;;5004044;28;20334;-70
2021/01/30 03:48:45;;;;;;;4.75;3.20;;;9.80;67.30;;;;;;4993565;28;20027;-71
2021/01/30 03:51:11;;;;;;;6.65;3.28;;;9.80;68.10;;;;;;4993471;28;20097;-69
2021/01/30 03:53:38;;;;;;;3.50;2.75;;;9.80;68.50;;;;;;4991865;28;20058;-70
2021/01/30 03:56:04;;;;;;;8.50;3.67;;;9.70;69.00;;;;;;4996458;28;20528;-71
2021/01/30 03:58:31;;;;;;;3.47;3.05;;;9.70;67.80;;;;;;4986993;28;20118;-71
2021/01/30 04:00:57;;;;;;;3.58;2.78;;;9.70;68.90;;;;;;4997747;28;20033;-71
2021/01/30 04:03:24;;;;;;;4.57;2.58;;;9.60;69.20;;;;;;4992418;28;20368;-71
2021/01/30 04:05:50;;;;;;;4.38;2.08;;;9.60;69.20;;;;;;4995480;28;20026;-70
2021/01/30 04:08:16;;;;;;;3.17;2.88;;;9.60;69.10;;;;;;4997052;28;20023;-73
2021/01/30 04:10:43;;;;;;;2.65;2.42;;;9.60;69.00;;;;;;4994182;28;20109;-74
2021/01/30 04:13:10;;;;;;;5.82;2.58;;;9.60;68.90;;;;;;4994471;28;20476;-73
2021/01/30 04:15:43;;;;;;;2.47;2.30;;;9.60;68.90;;;;;;4990006;28;20405;-73
2021/01/30 04:18:10;;;;;;;3.72;3.08;;;9.50;68.80;;;;;;4990891;28;20499;-73
2021/01/30 04:20:37;;;;;;;4.13;2.58;;;9.60;68.70;;;;;;4998228;28;20030;-73
2021/01/30 04:23:04;;;;;;;5.07;2.65;;;9.50;68.90;;;;;;4988186;28;20022;-72
2021/01/30 04:25:31;;;;;;;6.07;3.28;;;9.50;69.10;;;;;;4999122;28;20088;-72
2021/01/30 04:27:58;;;;;;;6.45;3.40;;;9.60;68.40;;;;;;4994143;28;20031;-73
2021/01/30 04:30:27;;;;;;;3.78;2.80;;;9.50;69.50;;;;;;4999036;28;20077;-74
2021/01/30 04:32:54;;;;;;;2.65;2.35;;;9.60;69.60;;;;;;4997989;28;20129;-73
2021/01/30 04:35:27;;;;;;;3.03;2.78;;;9.50;70.20;;;;;;4998489;28;20026;-76
2021/01/30 04:37:54;;;;;;;3.30;3.00;;;9.50;70.10;;;;;;4999382;28;20042;-76
2021/01/30 04:40:31;;;;;;;3.90;2.78;;;9.60;70.20;;;;;;4993980;28;20034;-73
2021/01/30 04:43:19;;;;;;;2.60;2.40;;;9.60;70.40;;;;;;4990293;28;20034;-69
2021/01/30 04:46:07;;;;;;;2.60;2.40;;;9.60;70.50;;;;;;4995642;28;20026;-69
2021/01/30 04:48:39;;;;;;;6.18;3.60;;;9.70;70.30;;;;;;4993812;28;21454;-69
2021/01/30 04:51:31;;;;;;;3.88;2.72;;;9.70;70.30;;;;;;4986738;28;20042;-70
2021/01/30 04:54:39;;;;;;;2.80;2.58;;;9.70;70.00;;;;;;4989441;28;20096;-70
2021/01/30 04:57:35;;;;;;;3.15;2.70;;;9.70;69.60;;;;;;4991330;28;20448;-70
2021/01/30 05:00:35;;;;;;;2.40;2.20;;;9.70;70.40;;;;;;4991439;28;20055;-70
2021/01/30 05:03:26;;;;;;;5.53;2.72;;;9.80;70.30;;;;;;4987797;28;20033;-70
2021/01/30 05:05:57;;;;;;;7.85;3.15;;;9.80;71.40;;;;;;4994654;28;20036;-71
2021/01/30 05:08:40;;;;;;;4.55;2.47;;;9.70;71.00;;;;;;4998223;28;20023;-70
2021/01/30 05:11:12;;;;;;;3.65;2.20;;;9.80;70.80;;;;;;4998816;28;20445;-70
2021/01/30 05:13:50;;;;;;;3.05;2.80;;;9.80;70.80;;;;;;4996342;28;20184;-70
2021/01/30 05:16:25;;;;;;;3.65;2.53;;;9.90;70.70;;;;;;4996515;28;20069;-70
2021/01/30 05:18:58;;;;;;;5.53;2.58;;;9.90;71.10;;;;;;4996573;28;20030;-71
2021/01/30 05:21:52;;;;;;;4.00;2.58;;;10.00;69.60;;;;;;4997330;28;20026;-71
2021/01/30 05:24:20;;;;;;;3.75;2.17;;;10.00;70.50;;;;;;4994518;28;20026;-70
2021/01/30 05:27:17;;;;;;;4.38;2.67;;;10.00;71.00;;;;;;4997308;28;20026;-69
2021/01/30 05:29:56;;;;;;;2.50;2.25;;;10.00;71.30;;;;;;4996574;28;20030;-70
2021/01/30 05:32:56;;;;;;;4.03;2.70;;;10.00;71.20;;;;;;4987043;28;20026;-70
2021/01/30 05:35:30;;;;;;;3.30;2.78;;;10.10;71.00;;;;;;4986286;28;20116;-72
2021/01/30 05:38:10;;;;;;;3.95;3.42;;;10.10;71.10;;;;;;4991880;28;20030;-71
2021/01/30 05:40:45;;;;;;;4.10;3.67;;;10.10;71.10;;;;;;4990674;28;20341;-70
2021/01/30 05:43:30;;;;;;;4.80;3.47;;;10.20;70.90;;;;;;4996525;28;20034;-68
2021/01/30 05:45:59;;;;;;;6.47;4.40;;;10.20;71.20;;;;;;4995663;28;20026;-70
2021/01/30 05:48:45;;;;;;;5.45;3.95;;;10.20;71.20;;;;;;4997759;28;20041;-70
2021/01/30 05:51:34;;;;;;;7.57;4.10;;;10.30;70.70;;;;;;4988535;28;20152;-69
2021/01/30 05:54:01;;;;;;;4.60;4.10;;;10.20;71.00;;;;;;4991201;28;20043;-70
2021/01/30 05:56:37;;;;;;;7.88;3.78;;;10.20;71.50;;;;;;4997143;28;20030;-71
2021/01/30 05:59:05;;;;;;;6.65;5.05;;;10.30;71.20;;;;;;4995376;28;20128;-71
2021/01/30 06:01:32;;;;;;;6.57;4.40;;;10.20;71.90;;;;;;4997111;28;20022;-72
2021/01/30 06:04:01;;;;;;;11.57;4.63;;;10.30;71.20;;;;;;4996954;28;20030;-70
2021/01/30 06:06:51;;;;;;;7.95;4.95;;;10.30;71.80;;;;;;4997030;28;20029;-69
2021/01/30 06:09:40;;;;;;;4.25;3.85;;;10.30;71.40;;;;;;4996378;28;20034;-72
2021/01/30 06:12:25;;;;;;;8.88;5.22;;;10.30;71.50;;;;;;4994494;28;20109;-72
2021/01/30 06:14:53;;;;;;;6.35;4.78;;;10.30;70.70;;;;;;4998221;28;20346;-71
2021/01/30 06:17:25;;;;;;;7.50;5.72;;;10.30;71.40;;;;;;4995380;28;20022;-73
2021/01/30 06:20:09;;;;;;;6.03;4.95;;;10.30;72.20;;;;;;4994747;28;20045;-72
2021/01/30 06:22:37;;;;;;;6.78;4.78;;;10.30;71.60;;;;;;4997648;28;20041;-70
2021/01/30 06:25:32;;;;;;;8.30;4.95;;;10.40;71.80;;;;;;4996677;28;20025;-71
2021/01/30 06:30:46;;;;;;;8.85;6.30;;;10.40;71.50;;;;;;5155716;27;20394;-69
2021/01/30 06:33:35;;;;;;;10.32;7.97;;;10.40;71.20;;;;;;5154639;27;20023;-72
2021/01/30 06:36:11;;;;;;;12.05;7.25;;;10.50;70.10;;;;;;5158534;27;20023;-71
2021/01/30 06:38:55;;;;;;;11.98;6.35;;;10.40;70.70;;;;;;5156161;27;20452;-69
2021/01/30 06:41:28;;;;;;;17.50;5.90;;;10.40;70.50;;;;;;5156608;27;20038;-72
2021/01/30 06:44:13;;;;;;;8.48;5.30;;;10.50;69.60;;;;;;5148082;27;20105;-70
2021/01/30 06:47:06;;;;;;;5.25;4.60;;;10.40;71.20;;;;;;5154079;27;20023;-72
2021/01/30 06:49:55;;;;;;;4.68;4.15;;;10.30;71.00;;;;;;5149959;27;20063;-72
2021/01/30 06:52:25;;;;;;;10.80;4.32;;;10.30;70.70;;;;;;5149704;27;20027;-73
2021/01/30 06:55:06;;;;;;;4.22;3.20;;;10.30;71.10;;;;;;5147366;27;20124;-69
2021/01/30 06:57:59;;;;;;;4.22;3.10;;;10.20;71.20;;;;;;5150004;27;20024;-71
2021/01/30 07:00:32;;;;;;;7.40;4.03;;;10.20;71.30;;;;;;5153375;27;20023;-70
2021/01/30 07:03:09;;;;;;;3.75;3.45;;;10.20;71.60;;;;;;5149272;27;20069;-70
2021/01/30 07:06:30;;;;;;;4.00;2.72;;;10.20;71.60;;;;;;5150330;27;20514;-71
2021/01/30 07:09:05;;;;;;;3.78;3.47;;;10.20;71.00;;;;;;5146078;27;20039;-70
2021/01/30 07:11:44;;;;;;;7.45;2.97;;;10.20;70.90;;;;;;5159688;27;20054;-70
2021/01/30 07:14:29;;;;;;;3.08;2.78;;;10.20;70.70;;;;;;5149232;27;20022;-70
2021/01/30 07:17:08;;;;;;;3.05;2.55;;;10.10;70.50;;;;;;5151740;27;20030;-70
2021/01/30 07:19:43;;;;;;;3.05;2.40;;;10.00;70.50;;;;;;5151104;27;20448;-69
2021/01/30 07:22:19;;;;;;;8.15;3.10;;;9.90;71.00;;;;;;5149777;27;20034;-70
2021/01/30 07:24:51;;;;;;;5.38;2.38;;;9.80;70.90;;;;;;5142041;27;20023;-70
2021/01/30 07:27:17;;;;;;;;;;;9.90;69.90;;;;;;5147556;27;20022;-70
2021/01/30 07:30:00;;;;;;;3.17;2.47;;;9.80;69.50;;;;;;5150190;27;19918;-69
2021/01/30 07:32:42;;;;;;;2.80;2.55;;;9.70;69.90;;;;;;5151046;27;20026;-70
2021/01/30 07:35:27;;;;;;;3.60;2.72;;;9.70;69.30;;;;;;5150185;27;20019;-70
2021/01/30 07:38:13;;;;;;;2.35;2.15;;;9.60;70.30;;;;;;5149905;27;20508;-69
2021/01/30 07:41:25;;;;;;;3.67;2.22;;;9.50;71.10;;;;;;5138551;27;20027;-69
2021/01/30 07:44:15;;;;;;;2.65;2.45;;;9.30;71.20;;;;;;5135879;27;20042;-73
2021/01/30 07:46:46;;;;;;;4.53;2.85;;;9.30;71.10;;;;;;5134365;27;20098;-70
2021/01/30 07:49:15;;;;;;;4.43;2.78;;;9.20;71.10;;;;;;5136292;27;20023;-70
2021/01/30 07:51:56;;;;;;;5.95;2.90;;;9.20;70.20;;;;;;5134534;27;20027;-69
2021/01/30 07:54:23;;;;;;;2.50;2.30;;;9.20;70.20;;;;;;5135612;27;20027;-69
2021/01/30 07:57:19;;;;;;;3.60;2.47;;;9.10;71.40;;;;;;5136567;27;20186;-69
2021/01/30 07:59:55;;;;;;;2.55;2.30;;;9.10;71.10;;;;;;5133722;27;20019;-69
2021/01/30 08:02:43;;;;;;;5.97;3.08;;;9.10;70.20;;;;;;5138102;27;20023;-69
2021/01/30 08:05:37;;;;;;;3.35;3.05;;;9.10;69.70;;;;;;5129387;27;20184;-69
2021/01/30 08:08:09;;;;;;;6.75;2.97;;;9.00;69.70;;;;;;5135132;27;20354;-69
2021/01/30 08:11:04;;;;;;;5.38;3.00;;;9.00;70.00;;;;;;5132741;27;20057;-70
2021/01/30 08:13:45;;;;;;;5.35;3.60;;;9.00;69.80;;;;;;5134504;27;20027;-69
2021/01/30 08:16:22;;;;;;;4.43;2.85;;;9.10;70.30;;;;;;5129008;27;20019;-69
2021/01/30 08:18:50;;;;;;;5.30;2.97;;;8.90;70.00;;;;;;5135815;27;20491;-69
2021/01/30 08:21:37;;;;;;;3.15;2.85;;;8.90;70.90;;;;;;5137519;27;20012;-70
2021/01/30 08:24:28;;;;;;;4.43;3.67;;;8.80;70.80;;;;;;5129381;27;20069;-70
2021/01/30 08:27:11;;;;;;;7.93;3.00;;;8.80;70.50;;;;;;5138036;27;20122;-71
2021/01/30 08:29:47;;;;;;;3.95;3.28;;;8.80;70.90;;;;;;5138128;27;20035;-69
2021/01/30 08:32:26;;;;;;;13.52;3.33;;;8.70;70.40;;;;;;5140380;27;20031;-71
2021/01/30 08:34:54;;;;;;;2.88;2.67;;;8.70;70.70;;;;;;5142702;27;20026;-71
2021/01/30 08:37:27;;;;;;;3.33;2.97;;;8.70;71.70;;;;;;5127244;27;20011;-69
2021/01/30 08:40:05;;;;;;;3.97;3.65;;;8.50;72.40;;;;;;5130071;27;20111;-69
2021/01/30 08:42:53;;;;;;;8.45;2.90;;;8.50;72.40;;;;;;5129817;27;20048;-70
2021/01/30 08:45:33;;;;;;;7.63;3.50;;;8.60;71.30;;;;;;5142932;27;20062;-69
2021/01/30 08:48:08;;;;;;;7.57;3.13;;;8.70;71.90;;;;;;5125206;27;20024;-72
2021/01/30 08:50:50;;;;;;;3.60;2.97;;;8.70;70.90;;;;;;5131292;27;20031;-71
2021/01/30 08:53:25;;;;;;;2.58;2.38;;;8.60;71.30;;;;;;5137417;27;20087;-69
2021/01/30 08:56:01;;;;;;;6.20;2.90;;;8.60;71.80;;;;;;5138462;27;20035;-69
2021/01/30 08:58:36;;;;;;;6.15;3.58;;;8.60;71.50;;;;;;5140603;27;20106;-70
2021/01/30 09:01:09;;;;;;;6.38;3.72;;;8.60;72.00;;;;;;5143802;27;20030;-69
2021/01/30 09:03:48;;;;;;;2.70;2.53;;;8.60;72.00;;;;;;5135403;27;20026;-69
2021/01/30 09:06:39;;;;;;;5.82;3.85;;;8.70;72.10;;;;;;5136865;27;20539;-69
2021/01/30 09:09:17;;;;;;;7.43;2.85;;;8.80;72.00;;;;;;5131130;27;20063;-69
2021/01/30 09:11:55;;;;;;;6.20;3.10;;;8.80;71.70;;;;;;5136188;27;20015;-70
2021/01/30 09:14:22;;;;;;;3.55;3.17;;;8.80;72.80;;;;;;5136183;27;20023;-69
2021/01/30 09:16:57;;;;;;;7.00;2.92;;;8.80;71.90;;;;;;5132941;27;20464;-69
2021/01/30 09:19:45;;;;;;;5.97;4.03;;;8.70;71.70;;;;;;5137698;27;20110;-69
2021/01/30 09:22:38;;;;;;;4.82;3.10;;;8.80;72.80;;;;;;5136210;27;20023;-70
2021/01/30 09:25:20;;;;;;;4.50;2.70;;;8.80;71.90;;;;;;5136717;27;20146;-70
2021/01/30 09:27:54;;;;;;;4.75;3.53;;;8.80;72.10;;;;;;5131845;27;20113;-69
2021/01/30 09:30:56;;;;;;;4.13;3.72;;;8.80;72.50;;;;;;5135514;27;20019;-69
2021/01/30 09:33:29;;;;;;;3.08;2.80;;;8.80;72.30;;;;;;5125162;27;20027;-69
2021/01/30 09:36:22;;;;;;;5.18;3.00;;;8.80;73.10;;;;;;5137037;27;20019;-70
2021/01/30 09:38:51;;;;;;;3.50;2.88;;;8.80;73.10;;;;;;5132009;27;20019;-69
2021/01/30 09:41:30;;;;;;;4.78;2.97;;;8.80;73.00;;;;;;5135972;27;20038;-70
2021/01/30 09:44:16;;;;;;;4.78;2.65;;;8.80;73.00;;;;;;5132671;27;20031;-69
2021/01/30 09:46:46;;;;;;;2.67;2.38;;;8.80;73.10;;;;;;5131738;27;20034;-70
2021/01/30 09:49:30;;;;;;;5.38;2.95;;;8.90;73.40;;;;;;5136794;27;20447;-70
2021/01/30 09:51:59;;;;;;;2.42;2.20;;;8.80;73.60;;;;;;5132805;27;20026;-69
2021/01/30 09:54:28;;;;;;;3.75;2.42;;;8.90;73.80;;;;;;5142849;27;20015;-70
2021/01/30 09:57:03;;;;;;;8.45;2.58;;;8.90;73.60;;;;;;5134288;27;20015;-70
2021/01/30 09:59:31;;;;;;;5.22;2.55;;;9.10;73.00;;;;;;5135290;27;20468;-69
2021/01/30 10:02:15;;;;;;;3.20;2.22;;;9.20;73.10;;;;;;5130133;27;20376;-70
2021/01/30 10:04:42;;;;;;;2.38;2.17;;;9.20;72.60;;;;;;5133656;27;20082;-69
2021/01/30 10:07:14;;;;;;;3.90;2.78;;;9.10;73.50;;;;;;5136588;27;20034;-70
2021/01/30 10:09:44;;;;;;;;;;;9.20;73.20;;;;;;5137698;27;20026;-70
2021/01/30 10:12:13;;;;;;;4.03;2.65;;;9.20;72.80;;;;;;5136510;27;19926;-70
2021/01/30 10:14:46;;;;;;;3.15;2.53;;;9.30;73.00;;;;;;5134978;27;20016;-70
2021/01/30 10:17:38;;;;;;;6.88;2.67;;;9.30;72.90;;;;;;5133689;27;20042;-69
2021/01/30 10:20:11;;;;;;;7.43;2.30;;;9.40;72.90;;;;;;5129966;27;20034;-70
2021/01/30 10:22:45;;;;;;;2.92;2.60;;;9.40;72.70;;;;;;5133696;27;20019;-69
2021/01/30 10:25:19;;;;;;;2.88;2.67;;;9.50;72.50;;;;;;5133901;27;20509;-70
2021/01/30 10:27:45;;;;;;;3.30;3.03;;;9.50;72.70;;;;;;5116246;28;20114;-69
2021/01/30 10:30:16;;;;;;;3.35;2.30;;;9.50;73.00;;;;;;5108356;28;20031;-69
2021/01/30 10:32:50;;;;;;;8.65;2.70;;;9.50;72.80;;;;;;5115128;28;20116;-70
2021/01/30 10:35:26;;;;;;;5.13;2.28;;;9.60;72.90;;;;;;5109631;28;20023;-69
2021/01/30 10:38:15;;;;;;;2.63;2.42;;;9.60;73.00;;;;;;5103443;28;20019;-70
2021/01/30 10:40:58;;;;;;;2.45;2.22;;;9.70;72.70;;;;;;5116433;28;20020;-69
2021/01/30 10:43:29;;;;;;;3.13;2.78;;;9.70;72.70;;;;;;5113651;28;20080;-70
2021/01/30 10:46:01;;;;;;;4.55;2.15;;;9.70;73.10;;;;;;5114916;28;20030;-70
2021/01/30 10:48:34;;;;;;;3.53;2.38;;;9.70;73.30;;;;;;5112929;28;20380;-70
2021/01/30 10:51:28;;;;;;;3.38;2.40;;;9.70;72.90;;;;;;5116181;28;20080;-70
2021/01/30 10:54:22;;;;;;;3.58;2.05;;;9.70;73.00;;;;;;5108004;28;20528;-70
2021/01/30 10:57:09;;;;;;;3.60;1.92;;;9.70;73.40;;;;;;5115442;28;20032;-70
2021/01/30 10:59:53;;;;;;;3.10;2.00;;;9.70;73.90;;;;;;5116553;28;20476;-71
2021/01/30 11:02:44;;;;;;;5.15;2.50;;;9.70;74.00;;;;;;5114971;28;20034;-70
2021/01/30 11:05:19;;;;;;;3.00;1.90;;;9.70;74.00;;;;;;5108472;28;20027;-69
2021/01/30 11:07:59;;;;;;;2.45;2.25;;;9.80;74.00;;;;;;5102258;28;20084;-69
2021/01/30 11:10:32;;;;;;;3.05;2.60;;;9.80;73.90;;;;;;5100020;28;20172;-70
2021/01/30 11:13:19;;;;;;;3.50;3.00;;;9.90;74.00;;;;;;5105657;28;20361;-70
2021/01/30 11:15:48;;;;;;;3.13;2.90;;;9.90;73.80;;;;;;5111852;28;20118;-70
2021/01/30 11:18:34;;;;;;;3.80;2.83;;;9.90;74.40;;;;;;5116468;28;20023;-69
2021/01/30 11:21:03;;;;;;;4.35;4.00;;;9.90;73.50;;;;;;5110265;28;20019;-69
2021/01/30 11:23:49;;;;;;;4.35;3.08;;;9.90;73.40;;;;;;5117762;28;20045;-70
2021/01/30 11:26:19;;;;;;;8.43;3.70;;;9.90;73.50;;;;;;5119652;28;20102;-70
2021/01/30 11:28:46;;;;;;;5.32;2.92;;;10.00;73.50;;;;;;5117432;27;20028;-70
2021/01/30 11:31:13;;;;;;;2.30;2.15;;;10.00;73.30;;;;;;5116014;27;20055;-70
2021/01/30 11:33:40;;;;;;;2.75;1.80;;;10.10;72.70;;;;;;5113880;28;20472;-70
2021/01/30 11:36:10;;;;;;;7.10;2.05;;;10.10;72.50;;;;;;5118514;28;20019;-70
2021/01/30 11:38:37;;;;;;;1.75;1.65;;;10.00;73.00;;;;;;5126527;27;20457;-70
2021/01/30 11:41:03;;;;;;;3.65;2.17;;;9.90;72.70;;;;;;5115266;28;20023;-70
2021/01/30 11:43:30;;;;;;;8.70;2.35;;;9.90;73.00;;;;;;5112172;27;20073;-70
2021/01/30 11:45:56;;;;;;;4.53;2.63;;;10.00;72.70;;;;;;5118961;28;20465;-70
2021/01/30 11:48:24;;;;;;;1.88;1.77;;;10.00;72.60;;;;;;5117300;27;20464;-69
2021/01/30 11:50:51;;;;;;;3.58;2.00;;;9.90;72.90;;;;;;5110655;27;20023;-70
2021/01/30 11:53:20;;;;;;;6.60;2.00;;;9.90;73.40;;;;;;5119249;27;20026;-69
2021/01/30 11:55:48;;;;;;;1.83;1.63;;;9.80;73.60;;;;;;5121763;27;20066;-69
2021/01/30 11:58:16;;;;;;;2.47;2.20;;;9.90;73.90;;;;;;5125272;27;20019;-70
2021/01/30 12:00:43;;;;;;;2.40;2.13;;;9.90;73.80;;;;;;5117933;28;20052;-74
2021/01/30 12:03:29;;;;;;;4.22;2.13;;;9.90;73.70;;;;;;5120014;27;20516;-70
2021/01/30 12:05:56;;;;;;;2.30;2.20;;;9.90;73.20;;;;;;5122583;27;20023;-69
2021/01/30 12:08:23;;;;;;;2.10;1.75;;;9.90;73.20;;;;;;5124574;27;20080;-70
2021/01/30 12:10:51;;;;;;;6.47;2.92;;;9.90;73.20;;;;;;5116301;28;20024;-70
2021/01/30 12:13:19;;;;;;;4.07;2.15;;;9.90;72.90;;;;;;5115264;28;20457;-70
2021/01/30 12:15:45;;;;;;;4.82;2.15;;;10.10;72.40;;;;;;5115813;28;20023;-70
2021/01/30 12:18:14;;;;;;;3.40;1.95;;;10.10;72.10;;;;;;5118647;27;20036;-70
2021/01/30 12:20:41;;;;;;;3.40;2.25;;;10.00;72.20;;;;;;5115691;28;20023;-70
2021/01/30 12:23:09;;;;;;;2.13;1.98;;;9.90;72.80;;;;;;5116885;27;20047;-70
2021/01/30 12:25:35;;;;;;;3.92;2.30;;;9.90;73.10;;;;;;5118362;27;20031;-70
2021/01/30 12:28:03;;;;;;;3.53;2.03;;;9.80;73.20;;;;;;5100705;28;20023;-71
2021/01/30 12:30:33;;;;;;;2.38;2.17;;;9.90;73.20;;;;;;5106471;28;20387;-70
2021/01/30 12:32:59;;;;;;;4.40;2.15;;;9.90;73.30;;;;;;5113930;27;20097;-70
2021/01/30 12:35:28;;;;;;;2.90;1.98;;;9.80;73.50;;;;;;5120346;27;20027;-70
2021/01/30 12:37:55;;;;;;;3.00;1.95;;;9.90;73.70;;;;;;5121088;27;20063;-70
2021/01/30 12:40:32;;;;;;;3.70;1.90;;;9.90;73.40;;;;;;5117393;28;20054;-69
2021/01/30 12:42:59;;;;;;;2.13;1.80;;;10.00;73.30;;;;;;5117102;27;20022;-70
2021/01/30 12:45:26;;;;;;;2.10;2.00;;;9.90;73.40;;;;;;5116903;27;20024;-70
2021/01/30 12:47:52;;;;;;;2.00;1.90;;;9.90;73.50;;;;;;5118491;27;20107;-69
2021/01/30 12:50:21;;;;;;;2.35;2.20;;;9.90;73.60;;;;;;5115123;27;20028;-69
2021/01/30 12:52:47;;;;;;;2.92;2.10;;;9.90;73.50;;;;;;5117260;27;20015;-70
2021/01/30 12:55:15;;;;;;;2.10;2.00;;;10.00;73.50;;;;;;5112614;27;20031;-70
2021/01/30 12:57:42;;;;;;;3.17;1.73;;;10.00;73.60;;;;;;5113448;28;20020;-69
2021/01/30 13:00:13;;;;;;;4.72;1.60;;;10.00;73.40;;;;;;5116953;28;20023;-70
2021/01/30 13:02:39;;;;;;;2.97;1.83;;;10.00;73.50;;;;;;5117246;28;20027;-69
2021/01/30 13:05:08;;;;;;;4.63;2.08;;;10.00;73.40;;;;;;5114132;28;20038;-73
2021/01/30 13:07:35;;;;;;;2.53;2.33;;;10.00;73.10;;;;;;5119747;28;20036;-74
2021/01/30 13:10:03;;;;;;;2.88;2.20;;;10.10;73.40;;;;;;5102941;28;20020;-71
2021/01/30 13:12:29;;;;;;;4.55;2.45;;;10.10;73.20;;;;;;5107057;28;20552;-69
2021/01/30 13:14:55;;;;;;;3.85;1.70;;;10.10;73.00;;;;;;5117330;28;20357;-69
2021/01/30 13:17:22;;;;;;;5.90;2.28;;;10.10;73.00;;;;;;5115438;28;20024;-69
2021/01/30 13:19:48;;;;;;;2.70;2.33;;;10.10;72.90;;;;;;5114723;28;20534;-69
2021/01/30 13:22:15;;;;;;;2.33;2.20;;;10.10;72.70;;;;;;5113118;28;20114;-70
2021/01/30 13:24:42;;;;;;;2.67;2.30;;;10.20;72.30;;;;;;5113645;28;20024;-70
2021/01/30 13:27:09;;;;;;;3.47;2.58;;;10.30;72.00;;;;;;5107054;28;20433;-69
2021/01/30 13:29:36;;;;;;;3.45;1.75;;;10.20;72.00;;;;;;5115513;28;20030;-70
2021/01/30 13:32:04;;;;;;;2.97;2.28;;;10.10;72.20;;;;;;5116324;28;20016;-70
2021/01/30 13:34:30;;;;;;;4.85;2.45;;;10.10;72.30;;;;;;5114626;28;20088;-70
2021/01/30 13:36:57;;;;;;;11.77;2.58;;;10.10;72.20;;;;;;5105836;28;20024;-70